Time;durP1;ratioP1;P1;durP2;ratioP2;P2;SDS_P1;SDS_P2;PMS_P1;PMS_P2;Temp;Humidity;BMP_temperature;BMP_pressure;BME280_temperature;BME280_humidity;BME280_pressure;Samples;Min_cycle;Max_cycle;Signal;HPM_P1;HPM_P2
2022/07/21 00:01:03;;;;;;;8.60;6.68;;;;;;;;;;4955222;28;20052;-87
2022/07/21 00:03:29;;;;;;;12.45;7.30;;;;;;;;;;4976647;28;20083;-87
2022/07/21 00:05:55;;;;;;;8.15;6.85;;;;;;;;;;4964479;28;20049;-87
2022/07/21 00:08:21;;;;;;;9.50;7.22;;;;;;;;;;4963283;28;20052;-87
2022/07/21 00:10:48;;;;;;;12.40;7.03;;;;;;;;;;4956859;28;20041;-86
2022/07/21 00:13:14;;;;;;;9.25;7.15;;;;;;;;;;4954153;28;20108;-87
2022/07/21 00:15:40;;;;;;;9.18;7.07;;;;;;;;;;4958918;28;20041;-87
2022/07/21 00:18:06;;;;;;;9.93;7.28;;;;;;;;;;4970974;28;20468;-87
2022/07/21 00:20:32;;;;;;;9.25;7.15;;;;;;;;;;4969085;28;20128;-87
2022/07/21 00:22:58;;;;;;;11.25;8.60;;;;;;;;;;4981704;28;20037;-87
2022/07/21 00:25:24;;;;;;;9.80;7.10;;;;;;;;;;5002182;28;20154;-87
2022/07/21 00:27:50;;;;;;;15.38;8.18;;;;;;;;;;4981114;28;20164;-87
2022/07/21 00:30:17;;;;;;;10.68;7.35;;;;;;;;;;4972085;28;20077;-88
2022/07/21 00:32:43;;;;;;;12.52;7.82;;;;;;;;;;4994000;28;20451;-88
2022/07/21 00:35:09;;;;;;;11.05;8.40;;;;;;;;;;5005716;28;20038;-88
2022/07/21 00:37:35;;;;;;;14.45;9.52;;;;;;;;;;5013199;28;20075;-88
2022/07/21 00:40:02;;;;;;;11.63;8.05;;;;;;;;;;4991292;28;20056;-88
2022/07/21 00:42:28;;;;;;;14.18;9.38;;;;;;;;;;4969366;28;20041;-88
2022/07/21 00:44:54;;;;;;;11.75;8.70;;;;;;;;;;4964947;28;20487;-88
2022/07/21 00:47:21;;;;;;;9.73;8.63;;;;;;;;;;4979140;28;20534;-87
2022/07/21 00:49:50;;;;;;;12.63;9.65;;;;;;;;;;5025535;28;20430;-87
2022/07/21 00:52:16;;;;;;;14.77;9.70;;;;;;;;;;5001010;28;20468;-87
2022/07/21 00:54:43;;;;;;;12.32;10.38;;;;;;;;;;5005872;28;20037;-87
2022/07/21 00:57:09;;;;;;;13.18;9.98;;;;;;;;;;4969667;28;20442;-87
2022/07/21 00:59:35;;;;;;;11.73;8.52;;;;;;;;;;4985094;28;20365;-88
2022/07/21 01:02:01;;;;;;;11.65;9.27;;;;;;;;;;4969181;28;20080;-88
2022/07/21 01:04:27;;;;;;;17.92;10.38;;;;;;;;;;4987963;28;20037;-88
2022/07/21 01:06:54;;;;;;;13.52;9.35;;;;;;;;;;4978198;28;20551;-87
2022/07/21 01:09:20;;;;;;;12.63;9.77;;;;;;;;;;5009692;28;20135;-88
2022/07/21 01:11:46;;;;;;;15.70;9.40;;;;;;;;;;5018243;28;20061;-88
2022/07/21 01:14:12;;;;;;;12.38;9.95;;;;;;;;;;5000309;28;20125;-88
2022/07/21 01:16:38;;;;;;;12.55;9.75;;;;;;;;;;4983883;28;20542;-89
2022/07/21 01:19:05;;;;;;;12.82;10.27;;;;;;;;;;4972941;28;20079;-88
2022/07/21 01:21:35;;;;;;;13.32;10.25;;;;;;;;;;4952854;28;20053;-89
2022/07/21 01:24:01;;;;;;;15.38;10.48;;;;;;;;;;4977722;28;21331;-88
2022/07/21 01:26:27;;;;;;;14.32;10.13;;;;;;;;;;4974711;28;20033;-89
2022/07/21 01:28:53;;;;;;;15.77;10.30;;;;;;;;;;4970124;28;20455;-88
2022/07/21 01:31:19;;;;;;;12.63;8.77;;;;;;;;;;4971845;28;20511;-88
2022/07/21 01:33:45;;;;;;;16.75;11.02;;;;;;;;;;4963752;28;20387;-88
2022/07/21 01:36:11;;;;;;;15.38;10.95;;;;;;;;;;4966130;28;20041;-89
2022/07/21 01:41:34;;;;;;;16.73;10.57;;;;;;;;;;4983279;28;20088;-88
2022/07/21 01:44:00;;;;;;;;;;;;;;;;;;4977912;28;20175;-89
2022/07/21 01:46:26;;;;;;;15.20;10.70;;;;;;;;;;4995099;28;19928;-89
2022/07/21 01:48:52;;;;;;;13.02;10.43;;;;;;;;;;4962877;28;20126;-88
2022/07/21 01:51:18;;;;;;;13.07;10.00;;;;;;;;;;4970250;28;20083;-88
2022/07/21 01:53:44;;;;;;;17.15;10.85;;;;;;;;;;4988919;28;20045;-88
2022/07/21 01:56:10;;;;;;;16.35;10.10;;;;;;;;;;4963716;28;20041;-88
2022/07/21 01:58:36;;;;;;;13.88;10.80;;;;;;;;;;4949770;28;20829;-89
2022/07/21 02:01:02;;;;;;;13.77;10.60;;;;;;;;;;4957719;28;20053;-88
2022/07/21 02:03:28;;;;;;;12.93;9.82;;;;;;;;;;4951887;28;20037;-88
2022/07/21 02:06:00;;;;;;;15.68;11.07;;;;;;;;;;4981981;28;20056;-88
2022/07/21 02:08:26;;;;;;;15.00;12.05;;;;;;;;;;4981060;28;20047;-88
2022/07/21 02:10:52;;;;;;;13.90;11.57;;;;;;;;;;4987189;28;20040;-88
2022/07/21 02:13:18;;;;;;;19.30;11.60;;;;;;;;;;4957382;28;20088;-89
2022/07/21 02:15:45;;;;;;;16.23;11.35;;;;;;;;;;4975868;28;20095;-88
2022/07/21 02:18:11;;;;;;;11.82;9.93;;;;;;;;;;4963146;28;20037;-88
2022/07/21 02:20:37;;;;;;;13.25;11.30;;;;;;;;;;4972755;28;20042;-89
2022/07/21 02:23:03;;;;;;;14.55;11.27;;;;;;;;;;4980964;28;20047;-88
2022/07/21 02:25:29;;;;;;;14.73;11.38;;;;;;;;;;4978940;28;20040;-88
2022/07/21 02:27:55;;;;;;;15.55;11.43;;;;;;;;;;4949051;28;20175;-88
2022/07/21 02:30:21;;;;;;;14.13;11.98;;;;;;;;;;4970077;28;20052;-88
2022/07/21 02:32:51;;;;;;;17.42;12.50;;;;;;;;;;4959148;28;20038;-88
2022/07/21 02:35:17;;;;;;;16.73;12.52;;;;;;;;;;4982231;28;20546;-88
2022/07/21 02:37:43;;;;;;;15.57;11.15;;;;;;;;;;4977652;28;20403;-88
2022/07/21 02:40:10;;;;;;;16.50;12.20;;;;;;;;;;4970757;28;21742;-88
2022/07/21 02:42:37;;;;;;;16.45;11.93;;;;;;;;;;4976185;28;20085;-88
2022/07/21 02:45:04;;;;;;;12.75;10.90;;;;;;;;;;4956284;28;20059;-89
2022/07/21 02:47:30;;;;;;;12.60;11.35;;;;;;;;;;4965379;28;20373;-89
2022/07/21 02:49:56;;;;;;;13.20;11.90;;;;;;;;;;4985583;28;20041;-89
2022/07/21 02:52:22;;;;;;;14.90;12.18;;;;;;;;;;4990877;28;20087;-89
2022/07/21 02:54:49;;;;;;;15.57;12.88;;;;;;;;;;4983428;28;20149;-89
2022/07/21 02:57:15;;;;;;;14.77;10.88;;;;;;;;;;4967720;28;20030;-89
2022/07/21 02:59:41;;;;;;;15.32;12.98;;;;;;;;;;4978115;28;20071;-89
2022/07/21 03:02:07;;;;;;;14.85;11.27;;;;;;;;;;4985428;28;20060;-88
2022/07/21 03:04:33;;;;;;;12.23;10.88;;;;;;;;;;4974395;28;20045;-88
2022/07/21 03:06:59;;;;;;;13.50;12.23;;;;;;;;;;4965656;28;20145;-88
2022/07/21 03:09:25;;;;;;;16.67;13.07;;;;;;;;;;5000995;28;21677;-88
2022/07/21 03:11:51;;;;;;;16.42;12.88;;;;;;;;;;4997117;28;20045;-89
2022/07/21 03:14:17;;;;;;;16.80;12.65;;;;;;;;;;5003834;28;20037;-87
2022/07/21 03:16:43;;;;;;;13.35;11.95;;;;;;;;;;4981977;28;20874;-88
2022/07/21 03:19:09;;;;;;;12.95;11.38;;;;;;;;;;4997331;28;20048;-89
2022/07/21 03:21:35;;;;;;;13.50;12.10;;;;;;;;;;4974891;28;20529;-88
2022/07/21 03:24:01;;;;;;;12.57;11.38;;;;;;;;;;4954529;28;20392;-88
2022/07/21 03:26:27;;;;;;;13.68;12.23;;;;;;;;;;4975339;28;20127;-89
2022/07/21 03:28:54;;;;;;;13.38;11.35;;;;;;;;;;4968491;28;20052;-88
2022/07/21 03:31:20;;;;;;;12.35;11.15;;;;;;;;;;4978755;28;20049;-89
2022/07/21 03:33:46;;;;;;;15.50;12.55;;;;;;;;;;4978799;28;20041;-89
2022/07/21 03:36:12;;;;;;;14.30;12.55;;;;;;;;;;4966451;28;20440;-89
2022/07/21 03:38:38;;;;;;;14.50;12.95;;;;;;;;;;4981375;28;20037;-88
2022/07/21 03:41:04;;;;;;;15.25;12.95;;;;;;;;;;4989715;28;20072;-88
2022/07/21 03:43:30;;;;;;;13.35;11.95;;;;;;;;;;4993477;28;20048;-88
2022/07/21 03:45:56;;;;;;;13.98;12.43;;;;;;;;;;4953730;28;20072;-89
2022/07/21 03:48:22;;;;;;;13.32;12.00;;;;;;;;;;4985939;28;20041;-83
2022/07/21 03:50:49;;;;;;;13.07;11.75;;;;;;;;;;4986801;28;20053;-84
2022/07/21 03:53:15;;;;;;;14.18;12.68;;;;;;;;;;5006322;28;20055;-84
2022/07/21 03:55:41;;;;;;;14.05;12.43;;;;;;;;;;5008051;28;20673;-85
2022/07/21 03:58:07;;;;;;;12.77;11.48;;;;;;;;;;4993536;28;20171;-83
2022/07/21 04:00:33;;;;;;;14.23;11.57;;;;;;;;;;5001894;28;20155;-83
2022/07/21 04:02:59;;;;;;;12.98;11.77;;;;;;;;;;4997853;28;20044;-84
2022/07/21 04:05:25;;;;;;;14.20;12.90;;;;;;;;;;5000302;28;23006;-84
2022/07/21 04:07:51;;;;;;;14.88;12.77;;;;;;;;;;4960124;28;20420;-83
2022/07/21 04:10:18;;;;;;;14.43;12.75;;;;;;;;;;5009551;28;20041;-84
2022/07/21 04:12:44;;;;;;;14.50;13.02;;;;;;;;;;5009939;28;20045;-84
2022/07/21 04:15:11;;;;;;;14.07;12.63;;;;;;;;;;5003449;28;20033;-83
2022/07/21 04:17:38;;;;;;;14.45;12.93;;;;;;;;;;4989582;28;20065;-83
2022/07/21 04:20:04;;;;;;;13.35;11.95;;;;;;;;;;4962843;28;20068;-83
2022/07/21 04:22:30;;;;;;;15.50;13.90;;;;;;;;;;4965806;28;20184;-84
2022/07/21 04:24:56;;;;;;;16.05;14.35;;;;;;;;;;4976770;28;20090;-84
2022/07/21 04:27:22;;;;;;;11.82;10.77;;;;;;;;;;4972605;28;20586;-84
2022/07/21 04:29:51;;;;;;;14.45;12.55;;;;;;;;;;4964326;28;20713;-83
2022/07/21 04:32:17;;;;;;;16.08;14.43;;;;;;;;;;4964638;28;20158;-86
2022/07/21 04:34:43;;;;;;;17.65;15.55;;;;;;;;;;4990364;28;20033;-86
2022/07/21 04:37:09;;;;;;;16.63;15.02;;;;;;;;;;4963437;28;20147;-86
2022/07/21 04:39:35;;;;;;;18.27;16.58;;;;;;;;;;4981503;28;20037;-87
2022/07/21 04:42:01;;;;;;;18.67;15.80;;;;;;;;;;4980530;28;20496;-86
2022/07/21 04:44:27;;;;;;;19.75;17.70;;;;;;;;;;4966421;28;20128;-87
2022/07/21 04:46:53;;;;;;;21.98;19.67;;;;;;;;;;4965420;28;20093;-86
2022/07/21 04:49:19;;;;;;;19.23;17.27;;;;;;;;;;4990617;28;20049;-87
2022/07/21 04:51:45;;;;;;;22.50;20.30;;;;;;;;;;4988245;28;20057;-87
2022/07/21 04:54:13;;;;;;;22.77;20.52;;;;;;;;;;4990967;28;20052;-87
2022/07/21 04:56:40;;;;;;;20.45;18.45;;;;;;;;;;4967295;28;21195;-87
2022/07/21 04:59:06;;;;;;;23.52;21.02;;;;;;;;;;4988659;28;20038;-87
2022/07/21 05:01:32;;;;;;;22.02;19.73;;;;;;;;;;4980614;28;20511;-87
2022/07/21 05:03:58;;;;;;;22.60;20.30;;;;;;;;;;4966876;28;20051;-87
2022/07/21 05:06:25;;;;;;;21.85;19.55;;;;;;;;;;4971197;28;20040;-85
2022/07/21 05:08:51;;;;;;;22.10;19.95;;;;;;;;;;4979176;28;20041;-83
2022/07/21 05:11:17;;;;;;;21.25;19.15;;;;;;;;;;5016025;28;20127;-88
2022/07/21 05:13:43;;;;;;;23.02;20.67;;;;;;;;;;4988095;28;21331;-88
2022/07/21 05:16:09;;;;;;;24.33;21.90;;;;;;;;;;4990561;28;20173;-83
2022/07/21 05:18:35;;;;;;;24.83;22.40;;;;;;;;;;5011855;28;20136;-85
2022/07/21 05:21:01;;;;;;;24.92;22.35;;;;;;;;;;5008776;28;20119;-85
2022/07/21 05:23:27;;;;;;;22.63;20.25;;;;;;;;;;5007237;28;20170;-88
2022/07/21 05:25:53;;;;;;;26.42;23.70;;;;;;;;;;4974633;28;20076;-88
2022/07/21 05:28:19;;;;;;;24.60;21.98;;;;;;;;;;4973155;28;20045;-88
2022/07/21 05:30:45;;;;;;;25.63;21.98;;;;;;;;;;4985137;28;20049;-88
2022/07/21 05:33:11;;;;;;;22.52;20.33;;;;;;;;;;4961057;28;20427;-88
2022/07/21 05:35:37;;;;;;;26.55;24.05;;;;;;;;;;5010904;28;20041;-87
2022/07/21 05:38:03;;;;;;;25.58;23.17;;;;;;;;;;5002931;28;20032;-89
2022/07/21 05:40:29;;;;;;;25.17;22.58;;;;;;;;;;5007652;28;20037;-88
2022/07/21 05:42:56;;;;;;;23.25;20.80;;;;;;;;;;5001586;28;20041;-88
2022/07/21 05:45:25;;;;;;;25.85;23.20;;;;;;;;;;4993418;28;20049;-87
2022/07/21 05:47:53;;;;;;;24.48;21.90;;;;;;;;;;4989004;28;20503;-87
2022/07/21 05:50:19;;;;;;;25.77;23.27;;;;;;;;;;4996254;28;20049;-88
2022/07/21 05:52:45;;;;;;;28.10;25.10;;;;;;;;;;4985681;28;20049;-88
2022/07/21 05:55:11;;;;;;;26.65;23.88;;;;;;;;;;4975060;28;20041;-87
2022/07/21 05:57:38;;;;;;;28.27;25.52;;;;;;;;;;4974880;28;20130;-87
2022/07/21 06:00:04;;;;;;;26.75;24.05;;;;;;;;;;4984378;28;20132;-87
2022/07/21 06:02:31;;;;;;;25.15;22.50;;;;;;;;;;4994740;28;20085;-87
2022/07/21 06:04:57;;;;;;;23.77;21.30;;;;;;;;;;4983276;28;20467;-88
2022/07/21 06:07:23;;;;;;;28.35;25.63;;;;;;;;;;4994568;28;20045;-88
2022/07/21 06:09:52;;;;;;;28.27;25.40;;;;;;;;;;5021669;28;20045;-87
2022/07/21 06:12:18;;;;;;;25.80;23.30;;;;;;;;;;4999817;28;20078;-88
2022/07/21 06:14:44;;;;;;;29.67;26.75;;;;;;;;;;4983714;28;20120;-88
2022/07/21 06:17:10;;;;;;;26.83;24.25;;;;;;;;;;5000147;28;20103;-87
2022/07/21 06:19:36;;;;;;;29.55;26.48;;;;;;;;;;4989704;28;20036;-87
2022/07/21 06:22:03;;;;;;;28.92;26.10;;;;;;;;;;4993261;28;20069;-87
2022/07/21 06:24:29;;;;;;;26.63;24.02;;;;;;;;;;4987080;28;20391;-87
2022/07/21 06:26:55;;;;;;;28.63;25.92;;;;;;;;;;4987685;28;20044;-88
2022/07/21 06:29:22;;;;;;;27.10;24.42;;;;;;;;;;5000906;28;20037;-88
2022/07/21 06:31:48;;;;;;;26.77;24.25;;;;;;;;;;4996255;28;20484;-87
2022/07/21 06:34:14;;;;;;;26.98;24.15;;;;;;;;;;4986380;28;20047;-88
2022/07/21 06:36:40;;;;;;;25.85;23.13;;;;;;;;;;5014297;28;20045;-88
2022/07/21 06:39:06;;;;;;;24.65;22.23;;;;;;;;;;5008100;28;20059;-88
2022/07/21 06:41:32;;;;;;;21.73;19.65;;;;;;;;;;4995723;28;20041;-87
2022/07/21 06:43:58;;;;;;;26.05;23.45;;;;;;;;;;5004708;28;20547;-88
2022/07/21 06:46:24;;;;;;;26.38;21.05;;;;;;;;;;5012792;28;20059;-88
2022/07/21 06:48:54;;;;;;;26.25;23.63;;;;;;;;;;4998139;28;21528;-87
2022/07/21 06:51:20;;;;;;;21.02;18.95;;;;;;;;;;4997532;28;20511;-88
2022/07/21 06:53:46;;;;;;;26.60;23.95;;;;;;;;;;5013889;28;20485;-87
2022/07/21 06:56:12;;;;;;;22.80;20.40;;;;;;;;;;4988296;28;20115;-87
2022/07/21 06:58:38;;;;;;;24.00;21.67;;;;;;;;;;4992179;28;20053;-87
2022/07/21 07:01:04;;;;;;;22.50;20.40;;;;;;;;;;4983462;28;20526;-88
2022/07/21 07:03:30;;;;;;;25.27;22.48;;;;;;;;;;4983471;28;20051;-88
2022/07/21 07:05:56;;;;;;;24.80;22.27;;;;;;;;;;4992580;28;20041;-87
2022/07/21 07:08:22;;;;;;;25.15;22.73;;;;;;;;;;4981852;28;20601;-87
2022/07/21 07:10:51;;;;;;;24.50;22.20;;;;;;;;;;5013466;28;20456;-87
2022/07/21 07:13:17;;;;;;;25.75;23.25;;;;;;;;;;4997164;28;20037;-87
2022/07/21 07:15:44;;;;;;;24.73;21.52;;;;;;;;;;4990122;28;21542;-88
2022/07/21 07:18:10;;;;;;;24.45;21.92;;;;;;;;;;4977016;28;20041;-88
2022/07/21 07:20:36;;;;;;;23.83;21.70;;;;;;;;;;4970696;28;20061;-87
2022/07/21 07:23:02;;;;;;;23.88;21.60;;;;;;;;;;4992758;28;20089;-88
2022/07/21 07:25:28;;;;;;;24.50;22.05;;;;;;;;;;4983423;28;20036;-87
2022/07/21 07:27:56;;;;;;;24.85;22.45;;;;;;;;;;4992615;28;20049;-88
2022/07/21 07:30:22;;;;;;;23.15;20.80;;;;;;;;;;4983608;28;20080;-87
2022/07/21 07:32:51;;;;;;;27.27;24.58;;;;;;;;;;4991196;28;20037;-87
2022/07/21 07:35:18;;;;;;;26.55;23.90;;;;;;;;;;5001781;28;20595;-87
2022/07/21 07:37:44;;;;;;;26.48;23.83;;;;;;;;;;4999920;28;20064;-87
2022/07/21 07:40:11;;;;;;;26.15;23.45;;;;;;;;;;4996878;28;20072;-87
2022/07/21 07:42:37;;;;;;;24.65;22.42;;;;;;;;;;5000132;28;20037;-87
2022/07/21 07:45:04;;;;;;;26.52;23.73;;;;;;;;;;4979003;28;20132;-88
2022/07/21 07:47:30;;;;;;;27.85;25.05;;;;;;;;;;5000635;28;20560;-87
2022/07/21 07:49:56;;;;;;;26.23;23.80;;;;;;;;;;4994845;28;20047;-87
2022/07/21 07:52:22;;;;;;;28.13;25.23;;;;;;;;;;5019267;28;21241;-87
2022/07/21 07:54:54;;;;;;;28.08;25.58;;;;;;;;;;4995897;28;20506;-87
2022/07/21 07:57:20;;;;;;;27.15;24.70;;;;;;;;;;5016913;28;20078;-87
2022/07/21 07:59:46;;;;;;;26.00;23.40;;;;;;;;;;5013026;28;20036;-87
2022/07/21 08:02:12;;;;;;;27.77;24.85;;;;;;;;;;4982772;28;20626;-87
2022/07/21 08:04:40;;;;;;;28.67;25.38;;;;;;;;;;5016319;28;20104;-87
2022/07/21 08:07:06;;;;;;;;;;;;;;;;;;4999203;28;20053;-87
2022/07/21 08:09:32;;;;;;;27.00;24.33;;;;;;;;;;4999390;28;19920;-87
2022/07/21 08:11:59;;;;;;;26.83;24.35;;;;;;;;;;5026730;28;20563;-87
2022/07/21 08:14:25;;;;;;;28.83;25.98;;;;;;;;;;5012488;28;20344;-87
2022/07/21 08:16:53;;;;;;;25.40;23.02;;;;;;;;;;4998642;28;20032;-87
2022/07/21 08:19:19;;;;;;;26.02;23.60;;;;;;;;;;5013106;28;20119;-87
2022/07/21 08:21:45;;;;;;;25.20;22.75;;;;;;;;;;4985590;28;20048;-87
2022/07/21 08:24:11;;;;;;;24.63;22.42;;;;;;;;;;5012204;28;20028;-87
2022/07/21 08:26:37;;;;;;;21.80;19.80;;;;;;;;;;5015536;28;20042;-86
2022/07/21 08:29:04;;;;;;;22.05;19.90;;;;;;;;;;4978432;28;20033;-87
2022/07/21 08:31:30;;;;;;;22.23;20.30;;;;;;;;;;4999524;28;20094;-87
2022/07/21 08:33:56;;;;;;;22.65;20.45;;;;;;;;;;4979817;28;20044;-86
2022/07/21 08:36:22;;;;;;;21.40;19.40;;;;;;;;;;4984868;28;20038;-87
2022/07/21 08:38:51;;;;;;;22.15;20.08;;;;;;;;;;4993485;28;20428;-86
2022/07/21 08:41:18;;;;;;;21.67;19.67;;;;;;;;;;4997884;28;20174;-87
2022/07/21 08:43:44;;;;;;;22.48;20.30;;;;;;;;;;5007611;28;20044;-87
2022/07/21 08:46:10;;;;;;;21.83;19.73;;;;;;;;;;5008594;28;20108;-87
2022/07/21 08:48:36;;;;;;;18.63;16.98;;;;;;;;;;5015013;28;20442;-87
2022/07/21 08:51:02;;;;;;;20.02;17.65;;;;;;;;;;5000626;28;20072;-86
2022/07/21 08:53:28;;;;;;;19.63;17.85;;;;;;;;;;5000540;28;20119;-87
2022/07/21 08:55:54;;;;;;;20.17;18.38;;;;;;;;;;5019098;28;20048;-87
2022/07/21 08:58:21;;;;;;;20.77;18.98;;;;;;;;;;5006768;28;20130;-86
2022/07/21 09:00:47;;;;;;;21.73;19.73;;;;;;;;;;5010740;28;20034;-87
2022/07/21 09:03:18;;;;;;;19.65;17.95;;;;;;;;;;5006060;28;20148;-87
2022/07/21 09:05:59;;;;;;;19.98;18.23;;;;;;;;;;5004634;28;20064;-87
2022/07/21 09:08:31;;;;;;;18.75;17.05;;;;;;;;;;5002208;28;20076;-87
2022/07/21 09:11:14;;;;;;;19.17;17.45;;;;;;;;;;4983470;28;20033;-87
2022/07/21 09:13:40;;;;;;;18.88;17.17;;;;;;;;;;5017235;28;20033;-87
2022/07/21 09:16:06;;;;;;;19.10;17.13;;;;;;;;;;4986400;28;20032;-87
2022/07/21 09:18:33;;;;;;;18.85;16.95;;;;;;;;;;4987951;28;20033;-86
2022/07/21 09:21:00;;;;;;;18.88;17.08;;;;;;;;;;4993085;28;20036;-87
2022/07/21 09:23:26;;;;;;;19.33;17.65;;;;;;;;;;4999621;28;20071;-87
2022/07/21 09:25:53;;;;;;;19.75;17.92;;;;;;;;;;4992163;28;21103;-86
2022/07/21 09:28:23;;;;;;;22.33;20.00;;;;;;;;;;5011352;28;20550;-87
2022/07/21 09:30:59;;;;;;;22.33;20.17;;;;;;;;;;5004696;28;20076;-86
2022/07/21 09:33:25;;;;;;;21.33;19.02;;;;;;;;;;4995101;28;20116;-87
2022/07/21 09:36:01;;;;;;;23.00;20.80;;;;;;;;;;5008648;28;20044;-87
2022/07/21 09:38:27;;;;;;;22.35;20.25;;;;;;;;;;4998757;28;20649;-86
2022/07/21 09:40:53;;;;;;;22.17;20.00;;;;;;;;;;4981373;28;20051;-87
2022/07/21 09:43:30;;;;;;;20.58;18.42;;;;;;;;;;5015412;28;20037;-87
2022/07/21 09:45:56;;;;;;;20.33;18.30;;;;;;;;;;5004644;28;20051;-87
2022/07/21 09:48:32;;;;;;;20.42;18.52;;;;;;;;;;5003284;28;20505;-87
2022/07/21 09:50:58;;;;;;;20.85;18.88;;;;;;;;;;4965646;28;20044;-86
2022/07/21 09:53:24;;;;;;;21.25;19.33;;;;;;;;;;4970109;28;20053;-86
2022/07/21 09:55:50;;;;;;;20.00;18.17;;;;;;;;;;4952029;28;20076;-86
2022/07/21 09:58:19;;;;;;;19.45;17.65;;;;;;;;;;4976041;28;20038;-87
2022/07/21 10:00:46;;;;;;;18.90;17.00;;;;;;;;;;4989939;28;20071;-87
2022/07/21 10:03:12;;;;;;;21.30;19.02;;;;;;;;;;4961424;28;20076;-87
2022/07/21 10:05:38;;;;;;;20.70;18.65;;;;;;;;;;4956546;28;20362;-86
2022/07/21 10:08:04;;;;;;;22.27;20.08;;;;;;;;;;4948255;28;20068;-87
2022/07/21 10:10:30;;;;;;;19.95;18.00;;;;;;;;;;4963395;28;20135;-86
2022/07/21 10:12:56;;;;;;;20.30;18.33;;;;;;;;;;4951597;28;20038;-86
2022/07/21 10:15:22;;;;;;;21.85;19.67;;;;;;;;;;4949261;28;20072;-86
2022/07/21 10:17:49;;;;;;;21.42;19.25;;;;;;;;;;4962208;28;20042;-87
2022/07/21 10:20:16;;;;;;;20.77;18.52;;;;;;;;;;4970726;28;20050;-86
2022/07/21 10:22:54;;;;;;;21.33;19.33;;;;;;;;;;4965091;28;20041;-87
2022/07/21 10:25:21;;;;;;;22.60;20.20;;;;;;;;;;4986728;28;20052;-86
2022/07/21 10:28:23;;;;;;;23.55;21.23;;;;;;;;;;4973890;28;20045;-86
2022/07/21 10:30:49;;;;;;;23.05;20.48;;;;;;;;;;4905329;28;20605;-87
2022/07/21 10:33:16;;;;;;;24.05;21.60;;;;;;;;;;4960032;28;20159;-87
2022/07/21 10:35:43;;;;;;;24.15;21.75;;;;;;;;;;4965713;28;20091;-87
2022/07/21 10:38:25;;;;;;;25.42;22.73;;;;;;;;;;4949784;28;20204;-86
2022/07/21 10:40:51;;;;;;;26.10;23.42;;;;;;;;;;4963174;28;20049;-86
2022/07/21 10:43:19;;;;;;;26.85;24.02;;;;;;;;;;4951601;28;20038;-86
2022/07/21 10:45:53;;;;;;;27.33;24.35;;;;;;;;;;4980935;28;20121;-86
2022/07/21 10:48:39;;;;;;;26.20;23.42;;;;;;;;;;4976026;28;20124;-87
2022/07/21 10:51:10;;;;;;;27.83;24.83;;;;;;;;;;4973772;28;20053;-86
2022/07/21 10:53:36;;;;;;;25.80;23.08;;;;;;;;;;4989843;28;20049;-86
2022/07/21 10:56:03;;;;;;;25.92;23.10;;;;;;;;;;4982881;28;20045;-86
2022/07/21 10:58:37;;;;;;;27.50;24.60;;;;;;;;;;4981699;28;20049;-86
2022/07/21 11:01:07;;;;;;;28.10;25.23;;;;;;;;;;4995220;28;20055;-86
2022/07/21 11:03:34;;;;;;;27.13;24.38;;;;;;;;;;4970615;28;23016;-86
2022/07/21 11:06:06;;;;;;;29.27;26.15;;;;;;;;;;4978934;28;20049;-86
2022/07/21 11:08:33;;;;;;;30.20;27.10;;;;;;;;;;5003248;28;20126;-86
2022/07/21 11:11:12;;;;;;;31.10;28.10;;;;;;;;;;4970593;28;20517;-86
2022/07/21 11:13:57;;;;;;;29.88;26.67;;;;;;;;;;4991877;28;20042;-86
2022/07/21 11:16:26;;;;;;;30.05;26.90;;;;;;;;;;4977876;28;20511;-86
2022/07/21 11:18:55;;;;;;;29.85;26.85;;;;;;;;;;4962117;28;20172;-86
2022/07/21 11:21:21;;;;;;;29.65;26.58;;;;;;;;;;4967066;28;20045;-86
2022/07/21 11:23:48;;;;;;;30.92;27.85;;;;;;;;;;4972745;28;20037;-86
2022/07/21 11:26:34;;;;;;;28.23;25.43;;;;;;;;;;4973298;28;20037;-86
2022/07/21 11:29:05;;;;;;;29.58;26.25;;;;;;;;;;4984478;28;20045;-86
2022/07/21 11:31:31;;;;;;;29.98;26.88;;;;;;;;;;5001021;28;20136;-86
2022/07/21 11:33:57;;;;;;;28.75;25.80;;;;;;;;;;4975903;28;20029;-86
2022/07/21 11:36:30;;;;;;;28.20;25.38;;;;;;;;;;4978174;28;20067;-86
2022/07/21 11:39:00;;;;;;;29.48;26.40;;;;;;;;;;4963253;28;20083;-86
2022/07/21 11:41:26;;;;;;;30.48;27.33;;;;;;;;;;4988310;28;20119;-86
2022/07/21 11:43:52;;;;;;;29.40;26.50;;;;;;;;;;4972799;28;20119;-86
2022/07/21 11:46:18;;;;;;;30.65;27.33;;;;;;;;;;4978172;28;20376;-86
2022/07/21 11:48:45;;;;;;;31.75;28.45;;;;;;;;;;4978831;28;20041;-86
2022/07/21 11:51:12;;;;;;;30.30;27.13;;;;;;;;;;4987819;28;20436;-86
2022/07/21 11:53:43;;;;;;;29.98;26.88;;;;;;;;;;4948430;28;20056;-86
2022/07/21 11:56:16;;;;;;;32.30;27.77;;;;;;;;;;4953640;28;20042;-88
2022/07/21 11:58:43;;;;;;;29.48;24.70;;;;;;;;;;4954972;28;20038;-88
2022/07/21 12:01:09;;;;;;;21.05;17.27;;;;;;;;;;4953529;28;21883;-88
2022/07/21 12:03:38;;;;;;;19.30;17.27;;;;;;;;;;4956015;28;20055;-89
2022/07/21 12:06:07;;;;;;;17.58;15.77;;;;;;;;;;4983202;28;20163;-89
2022/07/21 12:08:33;;;;;;;19.10;15.93;;;;;;;;;;4957612;28;20037;-88
2022/07/21 12:11:08;;;;;;;18.65;16.80;;;;;;;;;;4972404;28;20046;-88
2022/07/21 12:13:55;;;;;;;18.08;16.27;;;;;;;;;;4954672;28;20155;-88
2022/07/21 12:16:21;;;;;;;16.38;14.65;;;;;;;;;;4969604;28;20048;-88
2022/07/21 12:18:47;;;;;;;17.15;15.55;;;;;;;;;;4957325;28;20448;-88
2022/07/21 12:21:13;;;;;;;18.17;16.25;;;;;;;;;;4979412;28;20050;-88
2022/07/21 12:23:39;;;;;;;18.48;16.58;;;;;;;;;;4961668;28;20048;-88
2022/07/21 12:26:08;;;;;;;20.38;18.17;;;;;;;;;;4958902;28;20049;-88
2022/07/21 12:28:44;;;;;;;19.70;17.73;;;;;;;;;;4967047;28;20073;-88
2022/07/21 12:31:14;;;;;;;21.48;19.42;;;;;;;;;;4944975;28;20042;-88
2022/07/21 12:33:42;;;;;;;24.10;21.67;;;;;;;;;;4957134;28;20477;-88
2022/07/21 12:36:08;;;;;;;27.50;24.58;;;;;;;;;;4944081;28;20030;-88
2022/07/21 12:38:38;;;;;;;25.17;22.75;;;;;;;;;;4970665;28;20395;-88
2022/07/21 12:41:04;;;;;;;29.92;26.60;;;;;;;;;;4955986;28;20042;-88
2022/07/21 12:43:30;;;;;;;32.88;29.67;;;;;;;;;;4975473;28;21320;-88
2022/07/21 12:45:57;;;;;;;32.78;29.38;;;;;;;;;;4972706;28;20039;-88
2022/07/21 12:48:27;;;;;;;31.27;28.20;;;;;;;;;;4963992;28;20496;-88
2022/07/21 12:51:12;;;;;;;32.78;29.50;;;;;;;;;;4948067;28;20048;-87
2022/07/21 12:53:46;;;;;;;31.67;28.52;;;;;;;;;;4992944;28;20962;-88
2022/07/21 12:56:13;;;;;;;37.10;33.00;;;;;;;;;;4969815;28;20552;-88
2022/07/21 12:58:39;;;;;;;30.20;26.98;;;;;;;;;;4969991;28;20047;-87
2022/07/21 13:01:05;;;;;;;29.77;26.77;;;;;;;;;;4978917;28;20080;-87
2022/07/21 13:03:32;;;;;;;26.58;23.85;;;;;;;;;;4968299;28;20033;-87
2022/07/21 13:05:58;;;;;;;24.90;22.27;;;;;;;;;;4962653;28;20041;-87
2022/07/21 13:08:24;;;;;;;26.30;21.95;;;;;;;;;;4969096;28;20067;-87
2022/07/21 13:10:50;;;;;;;21.73;19.05;;;;;;;;;;4966226;28;20400;-87
2022/07/21 13:13:16;;;;;;;19.88;17.98;;;;;;;;;;4987015;28;20544;-87
2022/07/21 13:15:42;;;;;;;19.25;16.98;;;;;;;;;;4974473;28;20103;-87
2022/07/21 14:13:09;;;;;;;6.85;6.25;;;;;;;;;;5660502;24;20064;31
2022/07/21 14:15:35;;;;;;;7.40;6.70;;;;;;;;;;4642556;30;20074;-86
2022/07/21 14:18:01;;;;;;;7.82;7.03;;;;;;;;;;4618574;30;20050;-87
2022/07/21 14:20:27;;;;;;;7.53;6.90;;;;;;;;;;4608190;30;20141;-86
2022/07/21 14:22:54;;;;;;;8.38;7.68;;;;;;;;;;4627034;30;20492;-87
2022/07/21 14:25:20;;;;;;;8.43;7.70;;;;;;;;;;4638555;30;20046;-86
2022/07/21 14:27:47;;;;;;;6.85;6.30;;;;;;;;;;4613056;30;20050;-87
2022/07/21 14:30:13;;;;;;;7.28;6.57;;;;;;;;;;4620531;30;20043;-87
2022/07/21 14:32:39;;;;;;;7.00;6.50;;;;;;;;;;4610459;30;20162;-87
2022/07/21 14:35:05;;;;;;;7.25;6.65;;;;;;;;;;4618989;30;20054;-87
2022/07/21 14:37:31;;;;;;;7.00;6.40;;;;;;;;;;4603479;30;20099;-87
2022/07/21 14:39:57;;;;;;;6.50;5.90;;;;;;;;;;4616638;30;20129;-87
2022/07/21 14:42:24;;;;;;;6.35;5.85;;;;;;;;;;4601722;30;20730;-88
2022/07/21 14:44:50;;;;;;;7.57;6.97;;;;;;;;;;4598199;30;20509;-82
2022/07/21 14:47:16;;;;;;;8.30;7.60;;;;;;;;;;4619389;30;20156;-83
2022/07/21 14:49:42;;;;;;;8.50;7.90;;;;;;;;;;4627790;30;20054;-83
2022/07/21 14:52:11;;;;;;;7.35;6.75;;;;;;;;;;4614123;30;20503;-83
2022/07/21 14:54:37;;;;;;;6.53;5.93;;;;;;;;;;4628433;30;20169;-83
2022/07/21 14:57:04;;;;;;;6.15;5.68;;;;;;;;;;4624060;30;20050;-83
2022/07/21 14:59:31;;;;;;;6.43;5.25;;;;;;;;;;4632474;30;20121;-83
2022/07/21 15:01:57;;;;;;;5.22;4.82;;;;;;;;;;4613173;30;20057;-84
2022/07/21 15:04:23;;;;;;;5.63;5.20;;;;;;;;;;4636307;30;20080;-83
2022/07/21 15:06:49;;;;;;;4.90;4.50;;;;;;;;;;4616303;30;20050;-83
2022/07/21 15:09:15;;;;;;;4.43;4.13;;;;;;;;;;4612518;30;20054;-83
2022/07/21 15:11:41;;;;;;;4.97;4.57;;;;;;;;;;4627903;30;20049;-83
2022/07/21 15:14:07;;;;;;;4.97;4.47;;;;;;;;;;4613511;30;20464;-83
2022/07/21 15:16:33;;;;;;;5.50;5.00;;;;;;;;;;4595705;30;20106;-85
2022/07/21 15:18:59;;;;;;;5.35;4.95;;;;;;;;;;4615376;30;20047;-84